createdAt,value
2018-11-26T00:02:26.979Z,0
2018-11-26T00:05:54.853Z,0
2018-11-26T00:09:22.854Z,0
2018-11-26T00:12:50.848Z,0
2018-11-26T00:16:18.859Z,0
2018-11-26T00:19:46.759Z,0
2018-11-26T00:23:14.731Z,0
2018-11-26T00:26:42.688Z,0
2018-11-26T00:30:10.577Z,0
2018-11-26T00:33:38.444Z,0
2018-11-26T00:37:06.332Z,0
2018-11-26T00:40:34.212Z,0
2018-11-26T00:44:02.088Z,0
2018-11-26T00:47:29.973Z,0
2018-11-26T00:50:57.860Z,0
2018-11-26T00:54:25.724Z,0
2018-11-26T00:57:54.599Z,0
2018-11-26T01:01:22.484Z,0
2018-11-26T01:04:50.364Z,0
2018-11-26T01:08:18.234Z,0
2018-11-26T01:11:46.116Z,0
2018-11-26T01:15:14.004Z,0
2018-11-26T01:18:41.869Z,0
2018-11-26T01:22:09.747Z,0
2018-11-26T01:25:37.628Z,0
2018-11-26T01:29:05.495Z,0
2018-11-26T01:32:33.377Z,0
2018-11-26T01:36:01.260Z,0
2018-11-26T01:39:29.239Z,0
2018-11-26T01:42:58.101Z,0
2018-11-26T01:46:26.383Z,0
2018-11-26T01:49:55.275Z,0
2018-11-26T01:53:23.128Z,0
2018-11-26T01:56:51.006Z,0
2018-11-26T02:00:18.898Z,0
2018-11-26T02:03:46.757Z,0
2018-11-26T02:07:14.642Z,0
2018-11-26T02:10:42.524Z,0
2018-11-26T02:14:10.420Z,0
2018-11-26T02:17:38.299Z,0
2018-11-26T02:21:07.170Z,0
2018-11-26T02:24:35.046Z,0
2018-11-26T02:28:02.919Z,0
2018-11-26T02:31:30.804Z,0
2018-11-26T02:34:58.684Z,0
2018-11-26T02:38:27.545Z,0
2018-11-26T02:41:55.431Z,0
2018-11-26T02:45:23.316Z,0
2018-11-26T02:48:51.195Z,0
2018-11-26T02:52:19.085Z,0
2018-11-26T02:55:46.969Z,0
2018-11-26T02:59:15.838Z,0
2018-11-26T03:02:43.717Z,0
2018-11-26T03:06:11.600Z,0
2018-11-26T03:09:39.470Z,0
2018-11-26T03:13:08.344Z,0
2018-11-26T03:16:36.234Z,0
2018-11-26T03:20:04.117Z,0
2018-11-26T03:23:31.991Z,0
2018-11-26T03:26:59.865Z,0
2018-11-26T03:30:28.751Z,0
2018-11-26T03:33:56.628Z,0
2018-11-26T03:37:24.504Z,0
2018-11-26T03:40:52.388Z,0
2018-11-26T03:44:20.262Z,0
2018-11-26T03:47:48.154Z,0
2018-11-26T03:51:16.032Z,0
2018-11-26T03:54:43.922Z,0
2018-11-26T03:58:11.844Z,0
2018-11-26T04:01:39.735Z,0
2018-11-26T04:05:07.627Z,0
2018-11-26T04:08:35.521Z,0
2018-11-26T04:12:03.414Z,0
2018-11-26T04:15:31.287Z,0
2018-11-26T04:18:59.168Z,0
2018-11-26T04:22:27.030Z,0
2018-11-26T04:25:54.916Z,0
2018-11-26T04:29:22.796Z,0
2018-11-26T04:32:50.661Z,0
2018-11-26T04:36:18.545Z,0
2018-11-26T04:39:47.414Z,0
2018-11-26T04:43:15.277Z,0
2018-11-26T04:46:44.139Z,0
2018-11-26T04:50:12.020Z,0
2018-11-26T04:53:39.903Z,0
2018-11-26T04:57:08.769Z,0
2018-11-26T05:00:36.649Z,0
2018-11-26T05:04:04.530Z,0
2018-11-26T05:07:32.395Z,0
2018-11-26T05:11:00.285Z,0
2018-11-26T05:14:29.156Z,0
2018-11-26T05:17:57.021Z,0
2018-11-26T05:21:24.908Z,0
2018-11-26T05:24:52.783Z,0
2018-11-26T05:28:20.654Z,0
2018-11-26T05:31:48.534Z,0
2018-11-26T05:35:16.420Z,0
2018-11-26T05:38:44.303Z,0
2018-11-26T05:42:13.174Z,0
2018-11-26T05:45:41.056Z,0
2018-11-26T05:49:08.926Z,0
2018-11-26T05:52:36.810Z,0
2018-11-26T05:56:04.692Z,0
2018-11-26T05:59:32.565Z,0
2018-11-26T06:03:00.451Z,0
2018-11-26T06:06:29.340Z,0
2018-11-26T06:09:58.226Z,0
2018-11-26T06:13:26.091Z,0
2018-11-26T06:16:55.970Z,0
2018-11-26T06:20:23.859Z,0
2018-11-26T06:23:51.731Z,0
2018-11-26T06:27:19.630Z,0
2018-11-26T06:30:47.510Z,0
2018-11-26T06:34:15.379Z,0
2018-11-26T06:37:43.269Z,0
2018-11-26T06:41:12.152Z,0
2018-11-26T06:44:40.040Z,0
2018-11-26T06:48:07.905Z,0
2018-11-26T06:51:35.792Z,5.625
2018-11-26T06:55:03.675Z,5.625
2018-11-26T06:58:31.552Z,5.625
2018-11-26T07:01:59.444Z,11.25
2018-11-26T07:05:27.337Z,16.875
2018-11-26T07:08:55.239Z,16.875
2018-11-26T07:12:23.123Z,16.875
2018-11-26T07:15:51.005Z,16.875
2018-11-26T07:19:18.884Z,28.125
2018-11-26T07:22:46.760Z,33.75
2018-11-26T07:26:14.669Z,39.375
2018-11-26T07:29:42.543Z,39.375
2018-11-26T07:33:10.414Z,45
2018-11-26T07:36:38.305Z,50.625
2018-11-26T07:40:06.243Z,45
2018-11-26T07:43:34.113Z,50.625
2018-11-26T07:47:01.996Z,61.875
2018-11-26T07:50:30.883Z,67.5
2018-11-26T07:53:58.746Z,73.125
2018-11-26T07:57:26.642Z,73.125
2018-11-26T08:00:54.529Z,78.75
2018-11-26T08:04:22.394Z,84.375
2018-11-26T08:07:50.280Z,84.375
2018-11-26T08:11:18.169Z,90
2018-11-26T08:14:46.036Z,101.25
2018-11-26T08:18:13.923Z,106.875
2018-11-26T08:21:41.836Z,112.5
2018-11-26T08:25:09.701Z,118.125
2018-11-26T08:28:37.586Z,135
2018-11-26T08:32:06.468Z,135
2018-11-26T08:35:34.356Z,140.625
2018-11-26T08:39:02.238Z,140.625
2018-11-26T08:42:31.124Z,146.25
2018-11-26T08:45:59.003Z,151.875
2018-11-26T08:49:26.879Z,157.5
2018-11-26T08:52:54.769Z,151.875
2018-11-26T08:56:22.797Z,151.875
2018-11-26T08:59:50.532Z,163.125
2018-11-26T09:03:18.421Z,168.75
2018-11-26T09:06:46.301Z,180
2018-11-26T09:10:14.186Z,174.375
2018-11-26T09:13:42.061Z,180
2018-11-26T09:17:09.943Z,185.625
2018-11-26T09:20:37.830Z,180
2018-11-26T09:24:05.695Z,185.625
2018-11-26T09:27:34.572Z,225
2018-11-26T09:31:02.450Z,225
2018-11-26T09:34:30.322Z,213.75
2018-11-26T09:37:58.203Z,191.25
2018-11-26T09:41:26.089Z,168.75
2018-11-26T09:44:53.956Z,157.5
2018-11-26T09:48:21.850Z,168.75
2018-11-26T09:51:49.729Z,163.125
2018-11-26T09:55:17.617Z,168.75
2018-11-26T09:58:45.491Z,208.125
2018-11-26T10:02:13.371Z,196.875
2018-11-26T10:05:41.251Z,168.75
2018-11-26T10:09:09.121Z,208.125
2018-11-26T10:12:37.014Z,247.5
2018-11-26T10:16:04.900Z,180
2018-11-26T10:19:32.773Z,185.625
2018-11-26T10:23:00.674Z,180
2018-11-26T10:26:28.562Z,225
2018-11-26T10:29:56.440Z,225
2018-11-26T10:33:24.325Z,168.75
2018-11-26T10:36:52.213Z,157.5
2018-11-26T10:40:20.096Z,191.25
2018-11-26T10:43:47.977Z,202.5
2018-11-26T10:47:15.865Z,213.75
2018-11-26T10:50:43.750Z,191.25
2018-11-26T10:54:11.618Z,180
2018-11-26T10:57:39.497Z,185.625
2018-11-26T11:01:07.374Z,185.625
2018-11-26T11:04:36.237Z,146.25
2018-11-26T11:08:04.124Z,146.25
2018-11-26T11:11:32.006Z,129.375
2018-11-26T11:14:59.876Z,118.125
2018-11-26T11:18:27.806Z,140.625
2018-11-26T11:21:55.696Z,331.875
2018-11-26T11:25:23.578Z,331.875
2018-11-26T11:28:51.442Z,365.625
2018-11-26T11:32:19.330Z,517.5
2018-11-26T11:35:47.220Z,382.5
2018-11-26T11:39:15.088Z,241.875
2018-11-26T11:42:42.972Z,123.75
2018-11-26T11:46:10.858Z,118.125
2018-11-26T11:49:38.722Z,174.375
2018-11-26T11:53:06.607Z,185.625
2018-11-26T11:56:34.490Z,151.875
2018-11-26T12:00:02.380Z,140.625
2018-11-26T12:03:30.261Z,135
2018-11-26T12:06:58.825Z,151.875
2018-11-26T12:10:26.705Z,191.25
2018-11-26T12:13:54.642Z,219.375
2018-11-26T12:17:22.518Z,146.25
2018-11-26T12:20:50.400Z,106.875
2018-11-26T12:24:19.222Z,112.5
2018-11-26T12:27:47.101Z,90
2018-11-26T12:31:14.984Z,73.125
2018-11-26T12:34:42.851Z,129.375
2018-11-26T12:38:12.796Z,140.625
2018-11-26T12:41:40.686Z,303.75
2018-11-26T12:45:08.563Z,106.875
2018-11-26T12:48:37.431Z,106.875
2018-11-26T12:52:05.318Z,112.5
2018-11-26T12:55:34.719Z,67.5
2018-11-26T12:59:02.590Z,95.625
2018-11-26T13:02:30.471Z,106.875
2018-11-26T13:05:58.361Z,118.125
2018-11-26T13:09:26.223Z,90
2018-11-26T13:12:54.117Z,56.25
2018-11-26T13:16:22.975Z,78.75
2018-11-26T13:19:50.967Z,90
2018-11-26T13:23:18.839Z,151.875
2018-11-26T13:26:46.714Z,146.25
2018-11-26T13:30:15.332Z,129.375
2018-11-26T13:33:43.190Z,135
2018-11-26T13:37:12.059Z,135
2018-11-26T13:40:39.991Z,95.625
2018-11-26T13:44:07.864Z,84.375
2018-11-26T13:47:35.740Z,61.875
2018-11-26T13:51:03.629Z,61.875
2018-11-26T13:54:31.507Z,61.875
2018-11-26T13:57:59.382Z,50.625
2018-11-26T14:01:27.310Z,39.375
2018-11-26T14:04:56.168Z,50.625
2018-11-26T14:08:24.168Z,45
2018-11-26T14:11:52.058Z,45
2018-11-26T14:15:20.216Z,33.75
2018-11-26T14:18:48.085Z,28.125
2018-11-26T14:22:16.050Z,28.125
2018-11-26T14:25:44.877Z,22.5
2018-11-26T14:29:12.778Z,16.875
2018-11-26T14:32:40.673Z,16.875
2018-11-26T14:36:08.567Z,16.875
2018-11-26T14:39:36.459Z,11.25
2018-11-26T14:43:04.353Z,11.25
2018-11-26T14:46:33.235Z,5.625
2018-11-26T14:50:02.106Z,5.625
2018-11-26T14:53:29.998Z,0
2018-11-26T14:56:57.980Z,0
2018-11-26T15:00:25.851Z,0
2018-11-26T15:03:53.730Z,0
2018-11-26T15:07:21.635Z,0
2018-11-26T15:10:49.646Z,0
2018-11-26T15:14:18.513Z,0
2018-11-26T15:17:46.392Z,0
2018-11-26T15:21:14.273Z,0
2018-11-26T15:24:42.147Z,0
2018-11-26T15:28:10.044Z,0
2018-11-26T15:31:37.922Z,0
2018-11-26T15:35:05.793Z,0
2018-11-26T15:38:33.678Z,0
2018-11-26T15:42:01.556Z,0
2018-11-26T15:45:29.433Z,0
2018-11-26T15:48:57.310Z,0
2018-11-26T15:52:25.190Z,0
2018-11-26T15:55:53.112Z,0
2018-11-26T15:59:20.950Z,0
2018-11-26T16:02:48.835Z,0
2018-11-26T16:06:17.726Z,0
2018-11-26T16:09:45.592Z,0
2018-11-26T16:13:13.478Z,0
2018-11-26T16:16:41.409Z,0
2018-11-26T16:20:09.347Z,0
2018-11-26T16:23:37.232Z,0
2018-11-26T16:27:05.109Z,0
2018-11-26T16:30:32.999Z,0
2018-11-26T16:34:00.866Z,0
2018-11-26T16:37:28.747Z,0
2018-11-26T16:40:56.634Z,0
2018-11-26T16:44:24.499Z,0
2018-11-26T16:47:52.398Z,0
2018-11-26T16:51:20.277Z,0
2018-11-26T16:54:48.138Z,0
2018-11-26T16:58:16.025Z,0
2018-11-26T17:01:44.901Z,0
2018-11-26T17:05:12.774Z,0
2018-11-26T17:08:40.657Z,0
2018-11-26T17:12:08.543Z,0
2018-11-26T17:15:36.427Z,0
2018-11-26T17:19:04.296Z,0
2018-11-26T17:22:33.375Z,0
2018-11-26T17:26:02.206Z,0
2018-11-26T17:29:30.075Z,0
2018-11-26T17:32:57.956Z,0
2018-11-26T17:36:25.834Z,0
2018-11-26T17:39:53.707Z,0
2018-11-26T17:43:21.593Z,0
2018-11-26T17:46:50.474Z,0
2018-11-26T17:50:18.357Z,0
2018-11-26T17:53:46.275Z,0
2018-11-26T17:57:14.161Z,0
2018-11-26T18:00:42.045Z,0
2018-11-26T18:04:09.956Z,0
2018-11-26T18:07:37.872Z,0
2018-11-26T18:11:05.743Z,0
2018-11-26T18:14:33.626Z,0
2018-11-26T18:18:01.579Z,0
2018-11-26T18:21:29.483Z,0
2018-11-26T18:24:57.348Z,0
2018-11-26T18:28:25.233Z,0
2018-11-26T18:31:53.121Z,0
2018-11-26T18:35:21.003Z,0
2018-11-26T18:38:49.911Z,0
2018-11-26T18:42:18.782Z,0
2018-11-26T18:45:47.386Z,0
2018-11-26T18:49:16.263Z,0
2018-11-26T18:52:44.171Z,0
2018-11-26T18:56:13.149Z,0
2018-11-26T18:59:41.025Z,0
2018-11-26T19:03:08.924Z,0
2018-11-26T19:06:37.532Z,0
2018-11-26T19:10:06.306Z,0
2018-11-26T19:13:35.182Z,0
2018-11-26T19:17:03.121Z,0
2018-11-26T19:20:31.006Z,0
2018-11-26T19:23:58.878Z,0
2018-11-26T19:27:26.765Z,0
2018-11-26T19:30:54.654Z,0
2018-11-26T19:34:22.525Z,0
2018-11-26T19:37:50.404Z,0
2018-11-26T19:41:18.293Z,0
2018-11-26T19:44:46.167Z,0
2018-11-26T19:48:14.703Z,0
2018-11-26T19:51:43.893Z,0
2018-11-26T19:55:14.468Z,0
2018-11-26T19:58:42.367Z,0
2018-11-26T20:02:10.250Z,0
2018-11-26T20:05:38.133Z,0
2018-11-26T20:09:05.998Z,0
2018-11-26T20:12:33.887Z,0
2018-11-26T20:16:02.761Z,0
2018-11-26T20:19:30.934Z,0
2018-11-26T20:22:59.051Z,0
2018-11-26T20:26:26.957Z,0
2018-11-26T20:29:54.837Z,0
2018-11-26T20:33:22.751Z,0
2018-11-26T20:36:50.647Z,0
2018-11-26T20:40:18.517Z,0
2018-11-26T20:43:47.403Z,0
2018-11-26T20:47:15.290Z,0
2018-11-26T20:50:43.283Z,0
2018-11-26T20:54:11.162Z,0
2018-11-26T20:57:39.066Z,0
2018-11-26T21:01:06.966Z,0
2018-11-26T21:04:34.835Z,0
2018-11-26T21:08:02.720Z,0
2018-11-26T21:11:30.601Z,0
2018-11-26T21:14:59.476Z,0
2018-11-26T21:18:27.342Z,0
2018-11-26T21:21:55.233Z,0
2018-11-26T21:25:23.131Z,0
2018-11-26T21:28:51.009Z,0
2018-11-26T21:32:18.903Z,0
2018-11-26T21:35:46.793Z,0
2018-11-26T21:39:14.673Z,0
2018-11-26T21:42:42.566Z,0
2018-11-26T21:46:10.438Z,0
2018-11-26T21:49:38.326Z,0
2018-11-26T21:53:06.244Z,0
2018-11-26T21:56:34.126Z,0
2018-11-26T22:00:01.995Z,0
2018-11-26T22:03:32.852Z,0
2018-11-26T22:07:00.737Z,0
2018-11-26T22:10:28.673Z,0
2018-11-26T22:13:57.532Z,0
2018-11-26T22:17:25.429Z,0
2018-11-26T22:20:53.319Z,0
2018-11-26T22:24:22.182Z,0
2018-11-26T22:27:50.063Z,0
2018-11-26T22:31:17.950Z,0
2018-11-26T22:34:45.810Z,0
2018-11-26T22:38:13.697Z,0
2018-11-26T22:41:41.585Z,0
2018-11-26T22:45:10.439Z,0
2018-11-26T22:48:38.314Z,0
2018-11-26T22:52:06.205Z,0
2018-11-26T22:55:34.084Z,0
2018-11-26T22:59:01.951Z,0
2018-11-26T23:02:29.838Z,0
2018-11-26T23:05:57.720Z,0
2018-11-26T23:09:25.589Z,0
2018-11-26T23:12:53.473Z,0
2018-11-26T23:16:21.349Z,0
2018-11-26T23:19:49.216Z,0
2018-11-26T23:23:17.099Z,0
2018-11-26T23:26:44.982Z,0
2018-11-26T23:30:12.844Z,0
2018-11-26T23:33:40.733Z,0
2018-11-26T23:37:08.623Z,0
2018-11-26T23:40:37.473Z,0
2018-11-26T23:44:05.357Z,0
2018-11-26T23:47:34.223Z,0
2018-11-26T23:51:02.110Z,0
2018-11-26T23:54:29.970Z,0
2018-11-26T23:57:57.852Z,0
